Time;durP1;ratioP1;P1;durP2;ratioP2;P2;SDS_P1;SDS_P2;PMS_P1;PMS_P2;Temp;Humidity;BMP_temperature;BMP_pressure;BME280_temperature;BME280_humidity;BME280_pressure;Samples;Min_cycle;Max_cycle;Signal;HPM_P1;HPM_P2
2022/07/30 00:02:17;;;;;;;;;;;17.50;99.90;;;;;;5009184;28;19929;-63
2022/07/30 00:04:45;;;;;;;;;;;17.50;99.90;;;;;;5013554;28;19937;-64
2022/07/30 00:07:14;;;;;;;;;;;17.50;99.90;;;;;;5008957;28;19925;-64
2022/07/30 00:09:41;;;;;;;;;;;17.60;99.90;;;;;;5009004;28;20284;-62
2022/07/30 00:12:09;;;;;;;;;;;17.60;99.90;;;;;;5002739;28;19933;-64
2022/07/30 00:14:36;;;;;;;;;;;17.50;99.90;;;;;;5005411;28;20377;-62
2022/07/30 00:17:04;;;;;;;;;;;17.60;99.90;;;;;;5005304;28;20503;-62
2022/07/30 00:19:32;;;;;;;;;;;17.60;99.90;;;;;;5008958;28;19926;-62
2022/07/30 00:21:59;;;;;;;;;;;17.60;99.90;;;;;;5008719;28;19925;-62
2022/07/30 00:24:27;;;;;;;;;;;17.60;99.90;;;;;;5002348;28;19933;-62
2022/07/30 00:26:55;;;;;;;;;;;17.60;99.90;;;;;;5009832;28;20329;-64
2022/07/30 00:29:22;;;;;;;;;;;17.60;99.90;;;;;;5004560;28;19933;-63
2022/07/30 00:31:50;;;;;;;;;;;17.60;99.90;;;;;;5009176;28;20417;-63
2022/07/30 00:34:17;;;;;;;;;;;17.60;99.90;;;;;;5008789;28;19926;-61
2022/07/30 00:36:45;;;;;;;;;;;17.60;99.90;;;;;;5011057;28;20305;-62
2022/07/30 00:39:13;;;;;;;;;;;17.60;99.90;;;;;;5006666;28;19925;-63
2022/07/30 00:41:53;;;;;;;;;;;17.60;99.90;;;;;;5007344;28;19925;-61
2022/07/30 00:44:20;;;;;;;;;;;17.60;99.90;;;;;;5018970;28;19926;-62
2022/07/30 00:46:48;;;;;;;;;;;17.60;99.90;;;;;;5013497;28;19936;-63
2022/07/30 00:49:16;;;;;;;;;;;17.60;99.90;;;;;;4990045;28;19929;-62
2022/07/30 00:51:43;;;;;;;;;;;17.60;99.90;;;;;;5007955;28;19950;-63
2022/07/30 00:54:11;;;;;;;;;;;17.50;99.90;;;;;;5017099;28;20001;-64
2022/07/30 00:56:39;;;;;;;;;;;17.50;99.90;;;;;;5009061;28;19926;-63
2022/07/30 00:59:07;;;;;;;;;;;17.50;99.90;;;;;;5022239;28;19929;-63
2022/07/30 01:01:35;;;;;;;;;;;17.50;99.90;;;;;;4988482;28;19937;-65
2022/07/30 01:04:02;;;;;;;;;;;17.50;99.90;;;;;;4989422;28;19926;-61
2022/07/30 01:06:30;;;;;;;;;;;17.50;99.90;;;;;;5002533;28;19925;-63
2022/07/30 01:08:57;;;;;;;;;;;17.40;99.90;;;;;;5008149;28;19944;-63
2022/07/30 01:11:28;;;;;;;;;;;17.40;99.90;;;;;;5008695;28;19925;-63
2022/07/30 01:13:56;;;;;;;;;;;17.40;99.90;;;;;;5008409;28;19933;-64
2022/07/30 01:16:23;;;;;;;;;;;17.40;99.90;;;;;;5006733;28;19925;-63
2022/07/30 01:21:40;;;;;;;;;;;17.30;99.90;;;;;;5007906;28;19936;-64
2022/07/30 01:24:20;;;;;;;;;;;17.30;99.90;;;;;;5002049;28;19925;-63
2022/07/30 01:26:49;;;;;;;;;;;17.20;99.90;;;;;;4998425;28;19926;-63
2022/07/30 01:29:17;;;;;;;;;;;17.20;99.90;;;;;;5004435;28;19930;-62
2022/07/30 01:31:46;;;;;;;;;;;17.20;99.90;;;;;;5004933;28;19932;-62
2022/07/30 01:34:15;;;;;;;;;;;17.10;99.90;;;;;;4994937;28;19925;-63
2022/07/30 01:36:43;;;;;;;;;;;17.10;99.90;;;;;;5015042;28;20389;-62
2022/07/30 01:39:12;;;;;;;;;;;17.10;99.90;;;;;;5005390;28;19933;-62
2022/07/30 01:41:41;;;;;;;;;;;17.10;99.90;;;;;;5009558;28;19925;-63
2022/07/30 01:44:10;;;;;;;;;;;17.10;99.90;;;;;;5011257;28;19925;-64
2022/07/30 01:46:39;;;;;;;;;;;17.10;99.90;;;;;;5015116;28;19926;-63
2022/07/30 01:49:07;;;;;;;;;;;17.10;99.90;;;;;;5010661;28;19936;-64
2022/07/30 01:51:36;;;;;;;;;;;17.20;99.90;;;;;;5008871;28;19926;-62
2022/07/30 01:54:09;;;;;;;;;;;17.10;99.90;;;;;;5005026;28;19949;-63
2022/07/30 01:56:37;;;;;;;;;;;17.10;99.90;;;;;;5006779;28;19930;-64
2022/07/30 01:59:06;;;;;;;;;;;17.10;99.90;;;;;;4991657;28;19945;-63
2022/07/30 02:01:34;;;;;;;;;;;17.10;99.90;;;;;;5007758;28;19930;-64
2022/07/30 02:04:03;;;;;;;;;;;17.10;99.90;;;;;;4993720;28;19948;-63
2022/07/30 02:06:37;;;;;;;;;;;17.10;99.90;;;;;;5010404;28;20326;-64
2022/07/30 02:09:08;;;;;;;;;;;17.10;99.90;;;;;;4994772;28;19933;-64
2022/07/30 02:14:37;;;;;;;;;;;17.10;99.90;;;;;;5010926;28;20285;-64
2022/07/30 02:17:06;;;;;;;;;;;17.00;99.90;;;;;;5010919;28;19932;-64
2022/07/30 02:19:48;;;;;;;;;;;17.10;99.90;;;;;;5011563;28;19926;-63
2022/07/30 02:22:17;;;;;;;;;;;17.00;99.90;;;;;;5027257;28;19925;-63
2022/07/30 02:24:47;;;;;;;;;;;17.00;99.90;;;;;;5011072;28;19933;-64
2022/07/30 02:27:21;;;;;;;;;;;17.00;99.90;;;;;;4995460;28;19930;-63
2022/07/30 02:29:49;;;;;;;;;;;17.00;99.90;;;;;;4983801;28;19926;-64
2022/07/30 02:32:19;;;;;;;;;;;17.00;99.90;;;;;;5010511;28;19948;-62
2022/07/30 02:34:50;;;;;;;;;;;17.00;99.90;;;;;;5010561;28;19936;-62
2022/07/30 02:37:21;;;;;;;;;;;16.90;99.90;;;;;;5010921;28;19926;-62
2022/07/30 02:40:15;;;;;;;;;;;17.00;99.90;;;;;;5011994;28;19925;-63
2022/07/30 02:42:44;;;;;;;;;;;16.90;99.90;;;;;;5027143;28;19926;-63
2022/07/30 02:45:16;;;;;;;;;;;16.90;99.90;;;;;;5010503;28;20300;-63
2022/07/30 02:47:44;;;;;;;;;;;16.90;99.90;;;;;;5010216;28;19926;-63
2022/07/30 02:50:13;;;;;;;;;;;16.90;99.90;;;;;;4992010;28;19933;-63
2022/07/30 02:52:41;;;;;;;;;;;16.90;99.90;;;;;;5001256;28;20261;-63
2022/07/30 02:55:11;;;;;;;;;;;16.90;99.90;;;;;;5015460;28;20293;-62
2022/07/30 02:57:40;;;;;;;;;;;16.90;99.90;;;;;;5014244;28;20297;-63
2022/07/30 03:00:11;;;;;;;;;;;16.90;99.90;;;;;;5030843;28;19932;-64
2022/07/30 03:02:40;;;;;;;;;;;16.90;99.90;;;;;;5015564;28;19932;-64
2022/07/30 03:05:10;;;;;;;;;;;16.90;99.90;;;;;;5029844;28;19925;-64
2022/07/30 03:07:40;;;;;;;;;;;16.90;99.90;;;;;;5014347;28;19925;-64
2022/07/30 03:10:10;;;;;;;;;;;16.90;99.90;;;;;;5015312;28;19926;-64
2022/07/30 03:12:39;;;;;;;;;;;16.90;99.90;;;;;;5015309;28;20308;-64
2022/07/30 03:15:06;;;;;;;;;;;16.90;99.90;;;;;;5014042;28;19948;-64
2022/07/30 03:17:37;;;;;;;;;;;16.90;99.90;;;;;;5010845;28;20317;-63
2022/07/30 03:20:08;;;;;;;;;;;16.90;99.90;;;;;;4994001;28;19926;-64
2022/07/30 03:22:40;;;;;;;;;;;16.90;99.90;;;;;;4995696;28;20428;-63
2022/07/30 03:25:09;;;;;;;;;;;16.90;99.90;;;;;;4995587;28;19925;-63
2022/07/30 03:27:37;;;;;;;;;;;16.90;99.90;;;;;;4978213;28;19936;-64
2022/07/30 03:30:05;;;;;;;;;;;16.90;99.90;;;;;;4995319;28;19926;-63
2022/07/30 03:32:33;;;;;;;;;;;16.90;99.90;;;;;;4977364;28;19926;-62
2022/07/30 03:35:03;;;;;;;;;;;16.90;99.90;;;;;;5000145;28;19925;-62
2022/07/30 03:37:36;;;;;;;;;;;16.90;99.90;;;;;;4993954;28;19937;-63
2022/07/30 03:40:04;;;;;;;;;;;16.90;99.90;;;;;;4994096;28;19926;-63
2022/07/30 03:42:33;;;;;;;;;;;16.90;99.90;;;;;;4977539;28;19926;-63
2022/07/30 03:45:06;;;;;;;;;;;16.90;99.90;;;;;;4983467;28;19926;-62
2022/07/30 03:47:36;;;;;;;;;;;16.90;99.90;;;;;;4999146;28;19933;-62
2022/07/30 03:50:04;;;;;;;;;;;16.90;99.90;;;;;;5029538;28;19925;-62
2022/07/30 03:52:34;;;;;;;;;;;16.90;99.90;;;;;;5013392;28;19925;-64
2022/07/30 03:55:06;;;;;;;;;;;16.90;99.90;;;;;;5029790;28;19953;-64
2022/07/30 03:57:49;;;;;;;;;;;16.90;99.90;;;;;;5012985;28;19931;-64
2022/07/30 04:00:22;;;;;;;;;;;16.90;99.90;;;;;;5029600;28;19933;-63
2022/07/30 04:02:52;;;;;;;;;;;16.80;99.90;;;;;;5013183;28;19980;-62
2022/07/30 04:05:30;;;;;;;;;;;16.80;99.90;;;;;;5029128;28;19976;-63
2022/07/30 04:08:10;;;;;;;;;;;16.80;99.90;;;;;;5013108;28;19926;-63
2022/07/30 04:10:39;;;;;;;;;;;16.70;99.90;;;;;;5012703;28;19925;-65
2022/07/30 04:13:35;;;;;;;;;;;16.70;99.90;;;;;;5012715;28;19936;-65
2022/07/30 04:16:09;;;;;;;;;;;16.70;99.90;;;;;;4997944;28;19925;-64
2022/07/30 04:18:58;;;;;;;;;;;16.70;99.90;;;;;;5008806;28;19926;-63
2022/07/30 04:21:27;;;;;;;;;;;16.70;99.90;;;;;;5028790;28;19925;-63
2022/07/30 04:23:56;;;;;;;;;;;16.80;99.90;;;;;;5029190;28;19925;-63
2022/07/30 04:26:34;;;;;;;;;;;16.70;99.90;;;;;;4997390;28;19933;-64
2022/07/30 04:29:04;;;;;;;;;;;16.80;99.90;;;;;;5028821;28;19925;-63
2022/07/30 04:31:35;;;;;;;;;;;16.80;99.90;;;;;;5029179;28;19925;-63
2022/07/30 04:34:26;;;;;;;;;;;16.80;99.90;;;;;;5013495;28;19936;-62
2022/07/30 04:36:54;;;;;;;;;;;16.80;99.90;;;;;;5012301;28;19925;-64
2022/07/30 04:39:21;;;;;;;;;;;16.80;99.90;;;;;;5029015;28;19925;-63
2022/07/30 04:41:49;;;;;;;;;;;16.70;99.90;;;;;;5012679;28;20253;-63
2022/07/30 04:44:27;;;;;;;;;;;16.70;99.90;;;;;;5028548;28;19929;-64
2022/07/30 04:47:19;;;;;;;;;;;16.80;99.90;;;;;;5006539;28;20312;-64
2022/07/30 04:50:03;;;;;;;;;;;16.80;99.90;;;;;;5022315;28;19933;-63
2022/07/30 04:52:31;;;;;;;;;;;16.80;99.90;;;;;;5007633;28;20304;-63
2022/07/30 04:55:01;;;;;;;;;;;16.50;99.90;;;;;;4983042;28;19933;-63
2022/07/30 04:57:30;;;;;;;;;;;16.80;99.90;;;;;;5004649;28;19925;-63
2022/07/30 05:00:05;;;;;;;;;;;16.80;99.90;;;;;;5008187;28;19926;-66
2022/07/30 05:02:36;;;;;;;;;;;16.80;99.90;;;;;;5009553;28;20025;-64
2022/07/30 05:05:04;;;;;;;;;;;16.80;99.90;;;;;;5020989;28;19930;-64
2022/07/30 05:07:32;;;;;;;;;;;16.80;99.90;;;;;;5004930;28;19933;-63
2022/07/30 05:10:01;;;;;;;;;;;16.80;99.90;;;;;;5021911;28;19929;-63
2022/07/30 05:12:32;;;;;;;;;;;16.80;99.90;;;;;;5004732;28;19937;-63
2022/07/30 05:15:00;;;;;;;;;;;16.80;99.90;;;;;;5021239;28;19933;-63
2022/07/30 05:17:28;;;;;;;;;;;16.80;99.90;;;;;;4996614;28;19930;-63
2022/07/30 05:19:56;;;;;;;;;;;16.90;99.90;;;;;;5009644;28;19925;-63
2022/07/30 05:22:26;;;;;;;;;;;16.80;99.90;;;;;;5005103;28;19925;-64
2022/07/30 05:24:55;;;;;;;;;;;16.90;99.90;;;;;;5003070;28;19931;-64
2022/07/30 05:27:22;;;;;;;;;;;16.90;99.90;;;;;;5002037;28;19929;-62
2022/07/30 05:29:50;;;;;;;;;;;16.90;99.90;;;;;;4990676;28;20202;-63
2022/07/30 05:32:22;;;;;;;;;;;16.90;99.90;;;;;;4993604;28;19925;-62
2022/07/30 05:34:57;;;;;;;;;;;16.90;99.90;;;;;;5007724;28;19929;-63
2022/07/30 05:37:25;;;;;;;;;;;16.90;99.90;;;;;;5007323;28;19948;-63
2022/07/30 05:39:53;;;;;;;;;;;16.90;99.90;;;;;;5002995;28;19933;-63
2022/07/30 05:42:52;;;;;;;;;;;17.00;99.90;;;;;;4998942;28;19932;-63
2022/07/30 05:45:21;;;;;;;;;;;17.00;99.90;;;;;;5008570;28;19926;-63
2022/07/30 05:47:49;;;;;;;;;;;17.00;99.90;;;;;;5015488;28;19925;-63
2022/07/30 05:50:17;;;;;;;;;;;17.00;99.90;;;;;;5007425;28;19932;-63
2022/07/30 05:52:44;;;;;;;;;;;17.00;99.90;;;;;;4990397;28;19948;-63
2022/07/30 05:55:32;;;;;;;;;;;17.00;99.90;;;;;;5007481;28;19932;-62
2022/07/30 05:58:16;;;;;;;;;;;17.10;99.90;;;;;;5004809;28;19960;-63
2022/07/30 06:00:44;;;;;;;;;;;17.10;99.90;;;;;;5005605;28;19932;-64
2022/07/30 06:03:12;;;;;;;;;;;17.10;99.90;;;;;;5001011;28;20454;-63
2022/07/30 06:06:17;;;;;;;;;;;17.10;99.90;;;;;;4993452;28;19948;-64
2022/07/30 06:08:50;;;;;;;;;;;17.10;99.90;;;;;;5007974;28;19926;-65
2022/07/30 06:11:18;;;;;;;;;;;17.10;99.90;;;;;;5006842;28;19925;-65
2022/07/30 06:13:46;;;;;;;;;;;17.10;99.90;;;;;;5005490;28;19934;-63
2022/07/30 06:16:14;;;;;;;;;;;17.10;99.90;;;;;;5005885;28;19936;-65
2022/07/30 06:18:45;;;;;;;;;;;17.10;99.90;;;;;;4997696;28;19926;-64
2022/07/30 06:21:21;;;;;;;;;;;17.20;99.90;;;;;;5006890;28;20399;-64
2022/07/30 06:24:06;;;;;;;;;;;17.20;99.90;;;;;;5008090;28;20388;-64
2022/07/30 06:27:03;;;;;;;;;;;17.20;99.90;;;;;;5002617;28;19925;-64
2022/07/30 06:29:31;;;;;;;;;;;17.30;99.90;;;;;;5011415;28;19926;-63
2022/07/30 06:31:58;;;;;;;;;;;17.30;99.90;;;;;;4990736;28;20124;-63
2022/07/30 06:34:26;;;;;;;;;;;17.40;99.90;;;;;;5007890;28;19934;-64
2022/07/30 06:36:54;;;;;;;;;;;17.50;99.90;;;;;;5010349;28;19933;-64
2022/07/30 06:39:21;;;;;;;;;;;17.60;99.90;;;;;;5013061;28;19926;-63
2022/07/30 06:42:18;;;;;;;;;;;17.70;99.90;;;;;;5021428;28;19955;-63
2022/07/30 06:45:15;;;;;;;;;;;17.70;99.90;;;;;;4984679;28;19926;-63
2022/07/30 06:48:03;;;;;;;;;;;17.70;99.90;;;;;;4996750;28;20328;-64
2022/07/30 06:50:34;;;;;;;;;;;17.80;99.90;;;;;;5006701;28;20308;-63
2022/07/30 06:53:02;;;;;;;;;;;17.80;99.90;;;;;;5006726;28;19941;-63
2022/07/30 06:55:49;;;;;;;;;;;17.80;99.90;;;;;;5007457;28;19941;-63
2022/07/30 06:58:21;;;;;;;;;;;17.80;99.90;;;;;;5011216;28;19925;-63
2022/07/30 07:01:19;;;;;;;;;;;17.80;99.90;;;;;;5005238;28;19929;-63
2022/07/30 07:03:47;;;;;;;;;;;17.80;99.90;;;;;;4997579;28;19933;-63
2022/07/30 07:06:14;;;;;;;;;;;17.90;99.90;;;;;;5002754;28;19926;-64
2022/07/30 07:08:42;;;;;;;;;;;17.90;99.90;;;;;;4993685;28;19932;-63
2022/07/30 07:11:13;;;;;;;;;;;17.90;99.90;;;;;;5010182;28;19936;-63
2022/07/30 07:13:45;;;;;;;;;;;18.00;99.90;;;;;;5010394;28;19926;-64
2022/07/30 07:16:24;;;;;;;;;;;18.00;99.90;;;;;;5007919;28;19944;-63
2022/07/30 07:18:53;;;;;;;;;;;18.10;99.90;;;;;;4989107;28;19925;-64
2022/07/30 07:21:22;;;;;;;;;;;18.10;99.90;;;;;;5008182;28;19933;-64
2022/07/30 07:23:51;;;;;;;;;;;18.10;99.90;;;;;;5006380;28;19926;-64
2022/07/30 07:26:54;;;;;;;;;;;18.10;99.90;;;;;;4995955;28;20380;-64
2022/07/30 07:29:22;;;;;;;;;;;18.20;99.90;;;;;;5009343;28;19925;-63
2022/07/30 07:31:49;;;;;;;;;;;18.30;99.90;;;;;;5008482;28;20086;-63
2022/07/30 07:34:35;;;;;;;;;;;18.30;99.90;;;;;;5007998;28;19940;-63
2022/07/30 07:37:02;;;;;;;;;;;18.40;99.90;;;;;;5009814;28;19926;-63
2022/07/30 07:39:30;;;;;;;;;;;18.50;99.90;;;;;;5006441;28;19930;-63
2022/07/30 07:41:58;;;;;;;;;;;18.60;99.90;;;;;;5006676;28;19925;-63
2022/07/30 07:44:28;;;;;;;;;;;18.60;99.90;;;;;;4986376;28;19925;-65
2022/07/30 07:46:55;;;;;;;;;;;18.70;99.90;;;;;;5007477;28;19933;-64
2022/07/30 07:49:27;;;;;;;;;;;18.70;99.90;;;;;;5032903;28;19925;-64
2022/07/30 07:51:54;;;;;;;;;;;18.80;99.90;;;;;;5008790;28;19926;-63
2022/07/30 07:54:23;;;;;;;;;;;18.90;99.90;;;;;;5006158;28;19925;-63
2022/07/30 07:56:56;;;;;;;;;;;18.90;99.90;;;;;;5004614;28;19936;-64
2022/07/30 07:59:35;;;;;;;;;;;19.00;99.90;;;;;;5005244;28;19926;-64
2022/07/30 08:02:15;;;;;;;;;;;19.00;99.90;;;;;;5022655;28;19933;-63
2022/07/30 08:05:07;;;;;;;;;;;19.10;99.90;;;;;;5005252;28;20408;-64
2022/07/30 08:07:34;;;;;;;;;;;19.10;99.90;;;;;;5002972;28;19929;-64
2022/07/30 08:10:20;;;;;;;;;;;19.20;99.90;;;;;;5009546;28;19926;-63
2022/07/30 08:13:11;;;;;;;;;;;19.20;99.90;;;;;;5002968;28;19926;-62
2022/07/30 08:16:17;;;;;;;;;;;19.30;99.90;;;;;;5008302;28;19932;-63
2022/07/30 08:19:04;;;;;;;;;;;19.40;99.90;;;;;;5009368;28;19925;-63
2022/07/30 08:21:38;;;;;;;;;;;19.40;99.90;;;;;;5007471;28;19932;-64
2022/07/30 08:24:07;;;;;;;;;;;19.60;99.90;;;;;;5004391;28;20287;-64
2022/07/30 08:26:35;;;;;;;;;;;19.60;99.90;;;;;;5006587;28;19933;-64
2022/07/30 08:29:02;;;;;;;;;;;19.70;99.90;;;;;;5007868;28;19933;-63
2022/07/30 08:31:30;;;;;;;;;;;19.70;99.90;;;;;;4999716;28;20030;-64
2022/07/30 08:33:57;;;;;;;;;;;19.80;99.90;;;;;;4985611;28;20403;-64
2022/07/30 08:36:25;;;;;;;;;;;19.70;99.90;;;;;;4998475;28;19926;-64
2022/07/30 08:38:54;;;;;;;;;;;19.80;99.90;;;;;;5016708;28;19933;-64
2022/07/30 08:41:21;;;;;;;;;;;19.80;99.90;;;;;;5002584;28;20277;-64
2022/07/30 08:43:49;;;;;;;;;;;19.90;99.90;;;;;;4988850;28;20368;-64
2022/07/30 08:46:23;;;;;;;;;;;19.90;99.90;;;;;;5023901;28;19925;-65
2022/07/30 08:49:00;;;;;;;;;;;19.90;99.90;;;;;;5005844;28;19941;-64
2022/07/30 08:51:37;;;;;;;;;;;19.90;99.90;;;;;;5017665;28;20388;-65
2022/07/30 08:54:11;;;;;;;;;;;20.00;99.90;;;;;;5009558;28;19929;-64
2022/07/30 08:56:40;;;;;;;;;;;20.00;99.90;;;;;;5007987;28;20265;-64
2022/07/30 08:59:09;;;;;;;;;;;20.00;99.90;;;;;;5006682;28;19925;-66
2022/07/30 09:01:38;;;;;;;;;;;20.10;99.90;;;;;;5006166;28;19925;-65
2022/07/30 09:04:05;;;;;;;;;;;20.10;99.90;;;;;;5003554;28;19933;-64
2022/07/30 09:06:33;;;;;;;;;;;20.10;99.90;;;;;;5006034;28;19926;-63
2022/07/30 09:09:02;;;;;;;;;;;20.00;99.90;;;;;;4989451;28;20506;-64
2022/07/30 09:11:32;;;;;;;;;;;20.10;99.90;;;;;;5008692;28;19936;-62
2022/07/30 09:14:07;;;;;;;;;;;20.10;99.90;;;;;;5018274;28;19952;-62
2022/07/30 09:16:35;;;;;;;;;;;20.10;99.90;;;;;;5004420;28;19935;-62
2022/07/30 09:19:13;;;;;;;;;;;20.10;99.90;;;;;;5005328;28;19925;-62
2022/07/30 09:21:42;;;;;;;;;;;20.10;99.90;;;;;;5004871;28;19926;-63
2022/07/30 09:24:22;;;;;;;;;;;20.10;99.90;;;;;;5023679;28;19925;-62
2022/07/30 09:27:08;;;;;;;;;;;20.10;99.90;;;;;;4996602;28;19926;-63
2022/07/30 09:29:56;;;;;;;;;;;20.20;99.90;;;;;;5002366;28;19930;-62
2022/07/30 09:32:53;;;;;;;;;;;20.20;99.90;;;;;;5006554;28;19929;-63
2022/07/30 09:35:39;;;;;;;;;;;20.20;99.90;;;;;;5003696;28;19933;-62
2022/07/30 09:38:11;;;;;;;;;;;20.30;99.90;;;;;;5007228;28;19960;-63
2022/07/30 09:40:48;;;;;;;;;;;20.40;99.90;;;;;;5006304;28;20380;-63
2022/07/30 09:43:50;;;;;;;;;;;20.40;99.90;;;;;;5003725;28;19932;-63
2022/07/30 09:46:41;;;;;;;;;;;20.50;99.90;;;;;;5000115;28;19933;-63
2022/07/30 09:49:14;;;;;;;;;;;20.40;99.90;;;;;;5001009;28;20407;-63
2022/07/30 09:51:42;;;;;;;;;;;20.50;99.90;;;;;;5016837;28;19940;-63
2022/07/30 09:54:48;;;;;;;;;;;20.60;99.90;;;;;;5023328;28;19929;-63
2022/07/30 09:57:19;;;;;;;;;;;20.80;99.90;;;;;;5006277;28;19929;-64
2022/07/30 10:00:18;;;;;;;;;;;20.90;99.90;;;;;;5011818;28;19933;-64
2022/07/30 10:03:23;;;;;;;;;;;21.00;99.90;;;;;;5011427;28;19957;-63
2022/07/30 10:06:40;;;;;;;;;;;21.00;99.90;;;;;;5005219;28;20391;-65
2022/07/30 10:09:34;;;;;;;;;;;21.10;99.90;;;;;;4987245;28;19933;-65
2022/07/30 10:12:09;;;;;;;;;;;21.00;99.90;;;;;;5013162;28;20399;-65
2022/07/30 10:14:42;;;;;;;;;;;21.00;99.90;;;;;;5006334;28;19925;-62
2022/07/30 10:17:12;;;;;;;;;;;21.00;99.90;;;;;;4993359;28;19925;-62
2022/07/30 10:19:46;;;;;;;;;;;21.00;99.90;;;;;;4999097;28;19933;-63
2022/07/30 10:22:35;;;;;;;;;;;21.20;99.90;;;;;;5015448;28;19933;-63
2022/07/30 10:25:24;;;;;;;;;;;21.20;99.90;;;;;;5003932;28;19925;-63
2022/07/30 10:28:33;;;;;;;;;;;21.30;99.90;;;;;;4971287;28;19926;-63
2022/07/30 10:31:06;;;;;;;;;;;21.40;99.90;;;;;;4952918;28;19942;-64
2022/07/30 10:33:53;;;;;;;;;;;21.40;99.90;;;;;;4986235;28;19979;-61
2022/07/30 10:36:21;;;;;;;;;;;21.40;99.90;;;;;;5000440;28;19937;-61
2022/07/30 10:38:51;;;;;;;;;;;21.40;99.90;;;;;;5000508;28;19933;-62
2022/07/30 10:41:37;;;;;;;;;;;21.30;99.90;;;;;;4990553;28;19925;-61
2022/07/30 10:44:16;;;;;;;;;;;21.30;99.90;;;;;;5001927;28;19925;-63
2022/07/30 10:47:03;;;;;;;;;;;21.30;99.90;;;;;;4996752;28;19937;-62
2022/07/30 10:49:35;;;;;;;;;;;21.40;99.90;;;;;;4994990;28;19925;-63
2022/07/30 10:52:10;;;;;;;;;;;21.30;99.90;;;;;;5000843;28;19933;-63
2022/07/30 10:54:40;;;;;;;;;;;21.10;99.90;;;;;;4995738;28;19926;-63
2022/07/30 10:57:10;;;;;;;;;;;21.00;99.90;;;;;;4985980;28;19937;-63
2022/07/30 10:59:57;;;;;;;;;;;20.80;99.90;;;;;;5002087;28;19936;-62
2022/07/30 11:02:34;;;;;;;;;;;20.70;99.90;;;;;;5018570;28;20504;-62
2022/07/30 11:05:18;;;;;;;;;;;20.70;99.90;;;;;;5004851;28;19925;-62
2022/07/30 11:08:28;;;;;;;;;;;20.60;99.90;;;;;;5003841;28;19929;-62
2022/07/30 11:11:03;;;;;;;;;;;20.60;99.90;;;;;;4999280;28;19936;-62
2022/07/30 11:13:50;;;;;;;;;;;20.70;99.90;;;;;;5004472;28;19929;-62
2022/07/30 11:16:20;;;;;;;;;;;20.70;99.90;;;;;;5002001;28;19933;-62
2022/07/30 11:19:01;;;;;;;;;;;20.90;99.90;;;;;;5007303;28;20288;-62
2022/07/30 11:22:09;;;;;;;;;;;21.00;99.90;;;;;;5003438;28;19929;-62
2022/07/30 11:24:41;;;;;;;;;;;21.10;99.90;;;;;;4997587;28;19933;-66
2022/07/30 11:27:30;;;;;;;;;;;21.20;99.90;;;;;;5009262;28;19929;-62
2022/07/30 11:30:25;;;;;;;;;;;21.30;99.90;;;;;;4997702;28;19926;-63
2022/07/30 11:32:55;;;;;;;;;;;21.20;99.90;;;;;;5005581;28;20430;-65
2022/07/30 11:35:30;;;;;;;;;;;21.20;99.90;;;;;;5001628;28;20403;-65
2022/07/30 11:38:01;;;;;;;;;;;21.20;99.90;;;;;;4997868;28;20357;-64
2022/07/30 11:40:34;;;;;;;;;;;21.10;99.90;;;;;;5009334;28;20274;-63
2022/07/30 11:43:22;;;;;;;;;;;21.00;99.90;;;;;;5002948;28;19926;-63
2022/07/30 11:46:12;;;;;;;;;;;21.00;99.90;;;;;;5001212;28;19940;-64
2022/07/30 11:48:56;;;;;;;;;;;21.00;99.90;;;;;;5005253;28;19929;-64
2022/07/30 11:51:23;;;;;;;;;;;21.00;99.90;;;;;;4987796;28;20328;-61
2022/07/30 11:54:01;;;;;;;;;;;20.90;99.90;;;;;;4998492;28;19926;-62
2022/07/30 11:56:30;;;;;;;;;;;20.90;99.90;;;;;;5005188;28;19925;-63
2022/07/30 11:59:05;;;;;;;;;;;20.90;99.90;;;;;;5006078;28;19933;-62
2022/07/30 12:01:33;;;;;;;;;;;21.10;99.90;;;;;;5008339;28;19938;-63
2022/07/30 12:04:04;;;;;;;;;;;21.20;99.90;;;;;;5006819;28;19940;-63
2022/07/30 12:06:32;;;;;;;;;;;21.30;99.90;;;;;;5005696;28;19930;-62
2022/07/30 12:09:00;;;;;;;;;;;21.50;99.90;;;;;;5001980;28;19929;-63
2022/07/30 12:11:31;;;;;;;;;;;21.70;99.90;;;;;;5005804;28;19926;-63
2022/07/30 12:14:00;;;;;;;;;;;21.70;99.90;;;;;;5001149;28;20304;-63
2022/07/30 12:16:29;;;;;;;;;;;21.40;99.90;;;;;;4994487;28;19933;-63
2022/07/30 12:19:04;;;;;;;;;;;21.50;99.90;;;;;;4993093;28;20324;-63
2022/07/30 12:21:32;;;;;;;;;;;21.40;99.90;;;;;;5021360;28;20146;-62
2022/07/30 12:24:01;;;;;;;;;;;21.30;99.90;;;;;;5019736;28;19932;-62
2022/07/30 12:26:29;;;;;;;;;;;21.30;99.90;;;;;;5002455;28;20399;-63
2022/07/30 12:28:58;;;;;;;;;;;21.30;99.90;;;;;;5006424;28;19926;-63
2022/07/30 12:31:25;;;;;;;;;;;21.50;99.90;;;;;;5005168;28;19925;-63
2022/07/30 12:33:55;;;;;;;;;;;21.50;99.90;;;;;;5003843;28;19936;-63
2022/07/30 12:36:29;;;;;;;;;;;21.70;99.90;;;;;;5005027;28;19948;-63
2022/07/30 12:38:57;;;;;;;;;;;21.70;99.90;;;;;;5001372;28;20384;-63
2022/07/30 12:41:41;;;;;;;;;;;21.70;99.90;;;;;;4998609;28;19936;-63
2022/07/30 12:44:09;;;;;;;;;;;21.80;99.90;;;;;;4993321;28;19957;-63
2022/07/30 12:46:39;;;;;;;;;;;21.80;99.90;;;;;;4996297;28;20316;-64
2022/07/30 12:49:06;;;;;;;;;;;21.90;99.90;;;;;;5001942;28;20296;-63
2022/07/30 12:51:50;;;;;;;;;;;22.00;99.90;;;;;;5006934;28;20336;-66
2022/07/30 12:54:18;;;;;;;;;;;22.20;99.90;;;;;;5001509;28;19934;-63
2022/07/30 12:57:02;;;;;;;;;;;22.30;99.90;;;;;;5005106;28;19929;-63
2022/07/30 12:59:32;;;;;;;;;;;22.30;99.90;;;;;;5004030;28;19940;-62
2022/07/30 13:02:00;;;;;;;;;;;22.20;99.90;;;;;;5005998;28;19932;-63
2022/07/30 13:04:28;;;;;;;;;;;22.20;99.90;;;;;;5006737;28;19952;-63
2022/07/30 13:07:09;;;;;;;;;;;22.20;99.90;;;;;;5005676;28;20296;-63
2022/07/30 13:09:37;;;;;;;;;;;22.20;99.90;;;;;;5005900;28;20400;-64
2022/07/30 13:12:04;;;;;;;;;;;22.70;99.90;;;;;;4991324;28;19925;-64
2022/07/30 13:14:32;;;;;;;;;;;23.50;99.90;;;;;;5001344;28;19932;-63
2022/07/30 13:17:02;;;;;;;;;;;24.40;99.90;;;;;;5009426;28;19925;-64
2022/07/30 13:19:31;;;;;;;;;;;24.80;99.90;;;;;;5007636;28;20479;-64
2022/07/30 13:21:58;;;;;;;;;;;24.90;99.90;;;;;;5009663;28;19926;-64
2022/07/30 13:24:26;;;;;;;;;;;24.80;99.90;;;;;;5020607;28;19926;-64
2022/07/30 13:26:53;;;;;;;;;;;24.70;99.90;;;;;;5003973;28;19936;-63
2022/07/30 13:29:21;;;;;;;;;;;24.50;99.90;;;;;;5003176;28;19936;-63
2022/07/30 13:31:48;;;;;;;;;;;24.30;99.90;;;;;;5003746;28;19929;-63
2022/07/30 13:34:16;;;;;;;;;;;24.10;99.90;;;;;;4999454;28;19929;-63
2022/07/30 13:36:43;;;;;;;;;;;23.90;99.90;;;;;;4997427;28;19933;-64
2022/07/30 13:39:11;;;;;;;;;;;23.70;99.90;;;;;;4999630;28;19930;-63
2022/07/30 13:41:40;;;;;;;;;;;23.40;99.90;;;;;;4996546;28;19926;-63
2022/07/30 13:44:08;;;;;;;;;;;23.20;99.90;;;;;;4996111;28;19929;-65
2022/07/30 13:46:35;;;;;;;;;;;22.90;99.90;;;;;;4997807;28;19940;-64
2022/07/30 13:49:03;;;;;;;;;;;22.70;99.90;;;;;;4998160;28;19937;-64
2022/07/30 13:51:31;;;;;;;;;;;22.50;99.90;;;;;;4996294;28;19932;-64
2022/07/30 13:53:58;;;;;;;;;;;22.30;99.90;;;;;;4992336;28;19936;-62
2022/07/30 13:56:26;;;;;;;;;;;22.20;99.90;;;;;;4996550;28;20381;-63
2022/07/30 13:58:53;;;;;;;;;;;22.10;99.90;;;;;;5000381;28;19930;-63
2022/07/30 14:01:21;;;;;;;;;;;22.00;99.90;;;;;;5001671;28;19934;-62
2022/07/30 14:03:49;;;;;;;;;;;22.10;99.90;;;;;;5001729;28;19929;-64
2022/07/30 14:06:17;;;;;;;;;;;22.10;99.90;;;;;;5000079;28;19930;-62
2022/07/30 14:08:45;;;;;;;;;;;22.00;99.90;;;;;;5002817;28;19929;-64
2022/07/30 14:11:13;;;;;;;;;;;22.10;99.90;;;;;;4998784;28;19936;-64
2022/07/30 14:13:42;;;;;;;;;;;22.10;99.90;;;;;;5004310;28;19925;-64
2022/07/30 14:16:10;;;;;;;;;;;22.20;99.90;;;;;;4995039;28;19929;-63
2022/07/30 14:18:58;;;;;;;;;;;22.30;99.90;;;;;;5003615;28;19925;-64
2022/07/30 14:21:26;;;;;;;;;;;22.40;99.90;;;;;;5001132;28;20798;-65
2022/07/30 14:23:54;;;;;;;;;;;22.40;99.90;;;;;;5006197;28;20162;-63
2022/07/30 14:26:21;;;;;;;;;;;22.60;99.90;;;;;;4998668;28;19959;-63
2022/07/30 14:28:49;;;;;;;;;;;22.50;99.90;;;;;;5017461;28;19930;-64
2022/07/30 14:31:16;;;;;;;;;;;22.40;99.90;;;;;;5000066;28;19926;-63
2022/07/30 14:33:43;;;;;;;;;;;22.10;99.90;;;;;;5001171;28;19926;-65
2022/07/30 14:36:11;;;;;;;;;;;21.90;99.90;;;;;;5002303;28;19981;-65
2022/07/30 14:38:39;;;;;;;;;;;21.70;99.90;;;;;;4986800;28;19930;-64
2022/07/30 14:41:07;;;;;;;;;;;21.60;99.90;;;;;;5003890;28;19929;-63
2022/07/30 14:43:35;;;;;;;;;;;21.50;99.90;;;;;;4988733;28;19934;-64
2022/07/30 14:46:02;;;;;;;;;;;21.40;99.90;;;;;;4999726;28;20415;-64
2022/07/30 14:48:30;;;;;;;;;;;21.20;99.90;;;;;;5002058;28;20396;-63
2022/07/30 14:51:00;;;;;;;;;;;21.10;99.90;;;;;;5021083;28;20706;-63
2022/07/30 14:53:44;;;;;;;;;;;21.10;99.90;;;;;;5003092;28;19937;-64
2022/07/30 14:56:13;;;;;;;;;;;21.00;99.90;;;;;;5003843;28;20308;-64
2022/07/30 14:58:45;;;;;;;;;;;21.00;99.90;;;;;;5001299;28;19962;-65